sensor_id;sensor_type;location;lat;lon;timestamp;temperature;humidity
28069;DHT22;15382;47.578;8.086;2024-02-21T00:07:02;2.30;99.90
28069;DHT22;15382;47.578;8.086;2024-02-21T00:17:04;2.30;99.90
28069;DHT22;15382;47.578;8.086;2024-02-21T00:27:04;2.10;99.90
28069;DHT22;15382;47.578;8.086;2024-02-21T00:37:05;2.30;99.90
28069;DHT22;15382;47.578;8.086;2024-02-21T00:47:06;2.50;99.90
28069;DHT22;15382;47.578;8.086;2024-02-21T00:57:07;2.50;99.90
28069;DHT22;15382;47.578;8.086;2024-02-21T01:07:07;2.70;99.90
28069;DHT22;15382;47.578;8.086;2024-02-21T01:17:08;2.80;99.90
28069;DHT22;15382;47.578;8.086;2024-02-21T01:27:08;2.70;99.90
28069;DHT22;15382;47.578;8.086;2024-02-21T01:37:10;2.80;99.90
28069;DHT22;15382;47.578;8.086;2024-02-21T01:47:10;2.90;99.90
28069;DHT22;15382;47.578;8.086;2024-02-21T01:57:13;2.90;99.90
28069;DHT22;15382;47.578;8.086;2024-02-21T02:07:15;2.90;99.90
28069;DHT22;15382;47.578;8.086;2024-02-21T02:17:16;2.70;99.90
28069;DHT22;15382;47.578;8.086;2024-02-21T02:27:17;2.90;99.90
28069;DHT22;15382;47.578;8.086;2024-02-21T02:37:17;3.10;99.90
28069;DHT22;15382;47.578;8.086;2024-02-21T02:47:20;3.00;99.90
28069;DHT22;15382;47.578;8.086;2024-02-21T02:57:21;3.00;99.90
28069;DHT22;15382;47.578;8.086;2024-02-21T03:07:24;2.90;99.90
28069;DHT22;15382;47.578;8.086;2024-02-21T03:17:25;2.90;99.90
28069;DHT22;15382;47.578;8.086;2024-02-21T03:27:27;2.80;99.90
28069;DHT22;15382;47.578;8.086;2024-02-21T03:37:28;2.70;99.90
28069;DHT22;15382;47.578;8.086;2024-02-21T03:47:28;2.70;99.90
28069;DHT22;15382;47.578;8.086;2024-02-21T03:57:29;2.80;99.90
28069;DHT22;15382;47.578;8.086;2024-02-21T04:07:30;2.80;99.90
28069;DHT22;15382;47.578;8.086;2024-02-21T04:17:30;2.80;99.90
28069;DHT22;15382;47.578;8.086;2024-02-21T04:27:31;2.70;99.90
28069;DHT22;15382;47.578;8.086;2024-02-21T04:37:32;2.80;99.90
28069;DHT22;15382;47.578;8.086;2024-02-21T04:47:33;2.80;99.90
28069;DHT22;15382;47.578;8.086;2024-02-21T04:57:33;2.80;99.90
28069;DHT22;15382;47.578;8.086;2024-02-21T05:07:34;2.80;99.90
28069;DHT22;15382;47.578;8.086;2024-02-21T05:17:35;2.70;99.90
28069;DHT22;15382;47.578;8.086;2024-02-21T05:27:36;2.70;99.90
28069;DHT22;15382;47.578;8.086;2024-02-21T05:37:38;2.70;99.90
28069;DHT22;15382;47.578;8.086;2024-02-21T05:47:39;2.50;99.90
28069;DHT22;15382;47.578;8.086;2024-02-21T05:57:40;2.50;99.90
28069;DHT22;15382;47.578;8.086;2024-02-21T06:07:40;2.60;99.90
28069;DHT22;15382;47.578;8.086;2024-02-21T06:17:41;2.60;99.90
28069;DHT22;15382;47.578;8.086;2024-02-21T06:27:42;2.60;99.90
28069;DHT22;15382;47.578;8.086;2024-02-21T06:37:42;2.50;99.90
28069;DHT22;15382;47.578;8.086;2024-02-21T06:47:43;2.60;99.90
28069;DHT22;15382;47.578;8.086;2024-02-21T06:57:44;2.60;99.90
28069;DHT22;15382;47.578;8.086;2024-02-21T07:07:44;2.80;99.90
28069;DHT22;15382;47.578;8.086;2024-02-21T07:17:45;2.80;99.90
28069;DHT22;15382;47.578;8.086;2024-02-21T07:27:45;3.40;99.90
28069;DHT22;15382;47.578;8.086;2024-02-21T07:37:46;3.80;99.90
28069;DHT22;15382;47.578;8.086;2024-02-21T07:47:47;4.00;99.90
28069;DHT22;15382;47.578;8.086;2024-02-21T07:57:47;4.30;99.90
28069;DHT22;15382;47.578;8.086;2024-02-21T08:07:48;4.10;99.90
28069;DHT22;15382;47.578;8.086;2024-02-21T08:17:49;4.20;99.90
28069;DHT22;15382;47.578;8.086;2024-02-21T08:27:50;4.50;99.90
28069;DHT22;15382;47.578;8.086;2024-02-21T08:37:52;4.80;99.90
28069;DHT22;15382;47.578;8.086;2024-02-21T08:47:53;4.80;99.90
28069;DHT22;15382;47.578;8.086;2024-02-21T08:57:53;5.50;99.90
28069;DHT22;15382;47.578;8.086;2024-02-21T09:07:54;6.00;99.90
28069;DHT22;15382;47.578;8.086;2024-02-21T09:17:55;6.30;99.90
28069;DHT22;15382;47.578;8.086;2024-02-21T09:27:55;6.40;99.90
28069;DHT22;15382;47.578;8.086;2024-02-21T09:37:58;7.00;99.90
28069;DHT22;15382;47.578;8.086;2024-02-21T09:58:18;7.90;99.90
28069;DHT22;15382;47.578;8.086;2024-02-21T10:08:19;8.20;99.90
28069;DHT22;15382;47.578;8.086;2024-02-21T10:18:20;8.80;99.90
28069;DHT22;15382;47.578;8.086;2024-02-21T10:28:20;8.50;99.90
28069;DHT22;15382;47.578;8.086;2024-02-21T10:38:23;8.70;99.90
28069;DHT22;15382;47.578;8.086;2024-02-21T10:48:29;9.60;99.90
28069;DHT22;15382;47.578;8.086;2024-02-21T10:58:32;10.10;99.90
28069;DHT22;15382;47.578;8.086;2024-02-21T11:08:33;10.30;99.90
28069;DHT22;15382;47.578;8.086;2024-02-21T11:18:34;10.90;99.90
28069;DHT22;15382;47.578;8.086;2024-02-21T11:28:35;10.90;99.90
28069;DHT22;15382;47.578;8.086;2024-02-21T11:38:37;10.80;99.90
28069;DHT22;15382;47.578;8.086;2024-02-21T11:48:38;11.20;99.90
28069;DHT22;15382;47.578;8.086;2024-02-21T11:58:39;11.40;99.90
28069;DHT22;15382;47.578;8.086;2024-02-21T12:08:43;11.80;99.90
28069;DHT22;15382;47.578;8.086;2024-02-21T12:18:44;12.20;99.90
28069;DHT22;15382;47.578;8.086;2024-02-21T12:28:45;12.30;99.90
28069;DHT22;15382;47.578;8.086;2024-02-21T12:38:45;13.20;99.90
28069;DHT22;15382;47.578;8.086;2024-02-21T12:48:49;12.10;99.90
28069;DHT22;15382;47.578;8.086;2024-02-21T12:58:50;12.10;99.90
28069;DHT22;15382;47.578;8.086;2024-02-21T13:08:51;12.50;99.90
28069;DHT22;15382;47.578;8.086;2024-02-21T13:18:51;13.00;99.90
28069;DHT22;15382;47.578;8.086;2024-02-21T13:28:52;12.30;99.90
28069;DHT22;15382;47.578;8.086;2024-02-21T13:38:53;12.20;99.90
28069;DHT22;15382;47.578;8.086;2024-02-21T13:48:54;12.30;99.90
28069;DHT22;15382;47.578;8.086;2024-02-21T13:59:02;12.00;99.90
28069;DHT22;15382;47.578;8.086;2024-02-21T14:09:03;12.30;99.90
28069;DHT22;15382;47.578;8.086;2024-02-21T14:19:05;12.10;99.90
28069;DHT22;15382;47.578;8.086;2024-02-21T14:29:07;12.30;99.90
28069;DHT22;15382;47.578;8.086;2024-02-21T14:39:07;12.40;99.90
28069;DHT22;15382;47.578;8.086;2024-02-21T14:49:08;12.30;99.90
28069;DHT22;15382;47.578;8.086;2024-02-21T14:59:09;12.50;99.90
28069;DHT22;15382;47.578;8.086;2024-02-21T15:09:09;11.90;99.90
28069;DHT22;15382;47.578;8.086;2024-02-21T15:19:10;11.90;99.90
28069;DHT22;15382;47.578;8.086;2024-02-21T15:29:11;11.90;99.90
28069;DHT22;15382;47.578;8.086;2024-02-21T15:39:11;11.70;99.90
28069;DHT22;15382;47.578;8.086;2024-02-21T15:49:12;11.50;99.90
28069;DHT22;15382;47.578;8.086;2024-02-21T15:59:13;11.20;99.90
28069;DHT22;15382;47.578;8.086;2024-02-21T16:09:13;11.00;99.90
28069;DHT22;15382;47.578;8.086;2024-02-21T16:19:15;10.70;99.90
28069;DHT22;15382;47.578;8.086;2024-02-21T16:29:16;10.60;99.90
28069;DHT22;15382;47.578;8.086;2024-02-21T16:39:17;10.30;99.90
28069;DHT22;15382;47.578;8.086;2024-02-21T16:49:17;10.20;99.90
28069;DHT22;15382;47.578;8.086;2024-02-21T16:59:18;10.00;99.90
28069;DHT22;15382;47.578;8.086;2024-02-21T17:09:18;9.80;99.90
28069;DHT22;15382;47.578;8.086;2024-02-21T17:19:19;9.60;99.90
28069;DHT22;15382;47.578;8.086;2024-02-21T17:29:20;9.50;99.90
28069;DHT22;15382;47.578;8.086;2024-02-21T17:39:20;9.40;99.90
28069;DHT22;15382;47.578;8.086;2024-02-21T17:49:21;9.30;99.90
28069;DHT22;15382;47.578;8.086;2024-02-21T17:59:23;9.20;99.90
28069;DHT22;15382;47.578;8.086;2024-02-21T18:09:24;9.10;99.90
28069;DHT22;15382;47.578;8.086;2024-02-21T18:19:25;9.10;99.90
28069;DHT22;15382;47.578;8.086;2024-02-21T18:29:25;9.00;99.90
28069;DHT22;15382;47.578;8.086;2024-02-21T18:39:27;9.00;99.90
28069;DHT22;15382;47.578;8.086;2024-02-21T18:49:28;9.00;99.90
28069;DHT22;15382;47.578;8.086;2024-02-21T18:59:29;9.00;99.90
28069;DHT22;15382;47.578;8.086;2024-02-21T19:09:29;8.70;99.90
28069;DHT22;15382;47.578;8.086;2024-02-21T19:19:30;8.70;99.90
28069;DHT22;15382;47.578;8.086;2024-02-21T19:29:31;8.80;99.90
28069;DHT22;15382;47.578;8.086;2024-02-21T19:39:32;8.70;99.90
28069;DHT22;15382;47.578;8.086;2024-02-21T19:49:32;8.70;99.90
28069;DHT22;15382;47.578;8.086;2024-02-21T19:59:33;8.40;99.90
28069;DHT22;15382;47.578;8.086;2024-02-21T20:09:35;8.30;99.90
28069;DHT22;15382;47.578;8.086;2024-02-21T20:19:37;8.20;99.90
28069;DHT22;15382;47.578;8.086;2024-02-21T20:29:38;8.30;99.90
28069;DHT22;15382;47.578;8.086;2024-02-21T20:39:39;8.40;99.90
28069;DHT22;15382;47.578;8.086;2024-02-21T20:49:39;8.30;99.90
28069;DHT22;15382;47.578;8.086;2024-02-21T20:59:40;8.20;99.90
28069;DHT22;15382;47.578;8.086;2024-02-21T21:09:41;8.20;99.90
28069;DHT22;15382;47.578;8.086;2024-02-21T21:19:42;8.30;99.90
28069;DHT22;15382;47.578;8.086;2024-02-21T21:29:43;8.20;99.90
28069;DHT22;15382;47.578;8.086;2024-02-21T21:39:43;7.90;99.90
28069;DHT22;15382;47.578;8.086;2024-02-21T21:49:51;8.00;99.90
28069;DHT22;15382;47.578;8.086;2024-02-21T21:59:53;8.00;99.90
28069;DHT22;15382;47.578;8.086;2024-02-21T22:09:54;7.90;99.90
28069;DHT22;15382;47.578;8.086;2024-02-21T22:19:54;7.90;99.90
28069;DHT22;15382;47.578;8.086;2024-02-21T22:29:55;8.00;99.90
28069;DHT22;15382;47.578;8.086;2024-02-21T22:39:57;7.80;99.90
28069;DHT22;15382;47.578;8.086;2024-02-21T22:49:58;7.60;99.90
28069;DHT22;15382;47.578;8.086;2024-02-21T22:59:59;7.60;99.90
28069;DHT22;15382;47.578;8.086;2024-02-21T23:09:59;7.60;99.90
28069;DHT22;15382;47.578;8.086;2024-02-21T23:20:00;7.40;99.90
28069;DHT22;15382;47.578;8.086;2024-02-21T23:30:01;7.30;99.90
28069;DHT22;15382;47.578;8.086;2024-02-21T23:40:02;7.40;99.90
28069;DHT22;15382;47.578;8.086;2024-02-21T23:50:03;7.50;99.90
